sensor_id;sensor_type;location;lat;lon;timestamp;temperature;humidity
42365;DHT22;28498;54.400;18.566;2024-03-25T00:01:18;3.80;99.90
42365;DHT22;28498;54.400;18.566;2024-03-25T00:03:44;3.80;99.90
42365;DHT22;28498;54.400;18.566;2024-03-25T00:06:10;3.80;99.90
42365;DHT22;28498;54.400;18.566;2024-03-25T00:08:37;3.80;99.90
42365;DHT22;28498;54.400;18.566;2024-03-25T00:11:03;3.80;99.90
42365;DHT22;28498;54.400;18.566;2024-03-25T00:13:28;3.90;99.90
42365;DHT22;28498;54.400;18.566;2024-03-25T00:15:54;3.80;99.90
42365;DHT22;28498;54.400;18.566;2024-03-25T00:18:20;3.80;99.90
42365;DHT22;28498;54.400;18.566;2024-03-25T00:20:46;3.90;99.90
42365;DHT22;28498;54.400;18.566;2024-03-25T00:23:12;3.80;99.90
42365;DHT22;28498;54.400;18.566;2024-03-25T00:25:38;3.80;99.90
42365;DHT22;28498;54.400;18.566;2024-03-25T00:28:04;3.80;99.90
42365;DHT22;28498;54.400;18.566;2024-03-25T00:30:30;3.70;99.90
42365;DHT22;28498;54.400;18.566;2024-03-25T00:32:56;3.70;99.90
42365;DHT22;28498;54.400;18.566;2024-03-25T00:35:23;3.70;99.90
42365;DHT22;28498;54.400;18.566;2024-03-25T00:37:49;3.70;99.90
42365;DHT22;28498;54.400;18.566;2024-03-25T00:40:15;3.70;99.90
42365;DHT22;28498;54.400;18.566;2024-03-25T00:42:41;3.70;99.90
42365;DHT22;28498;54.400;18.566;2024-03-25T00:45:07;3.70;99.90
42365;DHT22;28498;54.400;18.566;2024-03-25T00:47:33;3.60;99.90
42365;DHT22;28498;54.400;18.566;2024-03-25T00:49:59;3.60;99.90
42365;DHT22;28498;54.400;18.566;2024-03-25T00:52:25;3.60;99.90
42365;DHT22;28498;54.400;18.566;2024-03-25T00:54:51;3.60;99.90
42365;DHT22;28498;54.400;18.566;2024-03-25T00:57:18;3.60;99.90
42365;DHT22;28498;54.400;18.566;2024-03-25T00:59:44;3.60;99.90
42365;DHT22;28498;54.400;18.566;2024-03-25T01:02:10;3.60;99.90
42365;DHT22;28498;54.400;18.566;2024-03-25T01:04:36;3.50;99.90
42365;DHT22;28498;54.400;18.566;2024-03-25T01:07:02;3.50;99.90
42365;DHT22;28498;54.400;18.566;2024-03-25T01:09:28;3.50;99.90
42365;DHT22;28498;54.400;18.566;2024-03-25T01:11:55;3.50;99.90
42365;DHT22;28498;54.400;18.566;2024-03-25T01:14:21;3.50;99.90
42365;DHT22;28498;54.400;18.566;2024-03-25T01:16:47;3.50;99.90
42365;DHT22;28498;54.400;18.566;2024-03-25T01:19:13;3.40;99.90
42365;DHT22;28498;54.400;18.566;2024-03-25T01:21:39;3.40;99.90
42365;DHT22;28498;54.400;18.566;2024-03-25T01:24:05;3.40;99.90
42365;DHT22;28498;54.400;18.566;2024-03-25T01:26:31;3.40;99.90
42365;DHT22;28498;54.400;18.566;2024-03-25T01:28:57;3.40;99.90
42365;DHT22;28498;54.400;18.566;2024-03-25T01:31:23;3.40;99.90
42365;DHT22;28498;54.400;18.566;2024-03-25T01:33:49;3.40;99.90
42365;DHT22;28498;54.400;18.566;2024-03-25T01:36:15;3.40;99.90
42365;DHT22;28498;54.400;18.566;2024-03-25T01:38:47;3.40;99.90
42365;DHT22;28498;54.400;18.566;2024-03-25T01:41:14;3.40;99.90
42365;DHT22;28498;54.400;18.566;2024-03-25T01:43:45;3.40;99.90
42365;DHT22;28498;54.400;18.566;2024-03-25T01:46:11;3.40;99.90
42365;DHT22;28498;54.400;18.566;2024-03-25T01:48:37;3.40;99.90
42365;DHT22;28498;54.400;18.566;2024-03-25T01:51:03;3.40;99.90
42365;DHT22;28498;54.400;18.566;2024-03-25T01:53:30;3.30;99.90
42365;DHT22;28498;54.400;18.566;2024-03-25T01:55:57;3.40;99.90
42365;DHT22;28498;54.400;18.566;2024-03-25T01:58:25;3.30;99.90
42365;DHT22;28498;54.400;18.566;2024-03-25T02:00:53;3.90;99.90
42365;DHT22;28498;54.400;18.566;2024-03-25T02:03:20;3.40;99.90
42365;DHT22;28498;54.400;18.566;2024-03-25T02:05:50;3.50;99.90
42365;DHT22;28498;54.400;18.566;2024-03-25T02:08:18;3.40;99.90
42365;DHT22;28498;54.400;18.566;2024-03-25T02:10:44;3.40;99.90
42365;DHT22;28498;54.400;18.566;2024-03-25T02:13:11;3.40;99.90
42365;DHT22;28498;54.400;18.566;2024-03-25T02:15:37;3.40;99.90
42365;DHT22;28498;54.400;18.566;2024-03-25T02:18:03;3.40;99.90
42365;DHT22;28498;54.400;18.566;2024-03-25T02:20:29;3.40;99.90
42365;DHT22;28498;54.400;18.566;2024-03-25T02:22:55;3.40;99.90
42365;DHT22;28498;54.400;18.566;2024-03-25T02:25:22;3.40;99.90
42365;DHT22;28498;54.400;18.566;2024-03-25T02:27:48;3.40;99.90
42365;DHT22;28498;54.400;18.566;2024-03-25T02:30:14;3.40;99.90
42365;DHT22;28498;54.400;18.566;2024-03-25T02:32:40;3.40;99.90
42365;DHT22;28498;54.400;18.566;2024-03-25T02:35:09;3.40;99.90
42365;DHT22;28498;54.400;18.566;2024-03-25T02:37:37;3.40;99.90
42365;DHT22;28498;54.400;18.566;2024-03-25T02:40:04;3.40;99.90
42365;DHT22;28498;54.400;18.566;2024-03-25T02:42:32;3.40;99.90
42365;DHT22;28498;54.400;18.566;2024-03-25T02:44:58;3.40;99.90
42365;DHT22;28498;54.400;18.566;2024-03-25T02:47:25;3.40;99.90
42365;DHT22;28498;54.400;18.566;2024-03-25T02:49:51;3.40;99.90
42365;DHT22;28498;54.400;18.566;2024-03-25T02:52:20;3.40;99.90
42365;DHT22;28498;54.400;18.566;2024-03-25T02:54:46;3.40;99.90
42365;DHT22;28498;54.400;18.566;2024-03-25T02:57:12;3.40;99.90
42365;DHT22;28498;54.400;18.566;2024-03-25T02:59:38;3.40;99.90
42365;DHT22;28498;54.400;18.566;2024-03-25T03:02:04;3.40;99.90
42365;DHT22;28498;54.400;18.566;2024-03-25T03:04:30;3.40;99.90
42365;DHT22;28498;54.400;18.566;2024-03-25T03:06:57;3.50;99.90
42365;DHT22;28498;54.400;18.566;2024-03-25T03:09:23;3.40;99.90
42365;DHT22;28498;54.400;18.566;2024-03-25T03:11:49;3.40;99.90
42365;DHT22;28498;54.400;18.566;2024-03-25T03:14:14;3.40;99.90
42365;DHT22;28498;54.400;18.566;2024-03-25T03:16:41;3.40;99.90
42365;DHT22;28498;54.400;18.566;2024-03-25T03:19:07;3.40;99.90
42365;DHT22;28498;54.400;18.566;2024-03-25T03:21:32;3.40;99.90
42365;DHT22;28498;54.400;18.566;2024-03-25T03:23:58;3.40;99.90
42365;DHT22;28498;54.400;18.566;2024-03-25T03:26:24;3.40;99.90
42365;DHT22;28498;54.400;18.566;2024-03-25T03:28:57;3.40;99.90
42365;DHT22;28498;54.400;18.566;2024-03-25T03:31:23;3.40;99.90
42365;DHT22;28498;54.400;18.566;2024-03-25T03:33:50;3.40;99.90
42365;DHT22;28498;54.400;18.566;2024-03-25T03:36:19;3.40;99.90
42365;DHT22;28498;54.400;18.566;2024-03-25T03:38:46;3.30;99.90
42365;DHT22;28498;54.400;18.566;2024-03-25T03:41:12;3.30;99.90
42365;DHT22;28498;54.400;18.566;2024-03-25T03:43:38;3.30;99.90
42365;DHT22;28498;54.400;18.566;2024-03-25T03:46:04;3.30;99.90
42365;DHT22;28498;54.400;18.566;2024-03-25T03:48:30;3.30;99.90
42365;DHT22;28498;54.400;18.566;2024-03-25T03:50:56;3.40;99.90
42365;DHT22;28498;54.400;18.566;2024-03-25T03:53:23;3.40;99.90
42365;DHT22;28498;54.400;18.566;2024-03-25T03:55:56;3.40;99.90
42365;DHT22;28498;54.400;18.566;2024-03-25T03:58:23;3.40;99.90
42365;DHT22;28498;54.400;18.566;2024-03-25T04:00:50;3.40;99.90
42365;DHT22;28498;54.400;18.566;2024-03-25T04:03:16;3.40;99.90
42365;DHT22;28498;54.400;18.566;2024-03-25T04:05:42;3.40;99.90
42365;DHT22;28498;54.400;18.566;2024-03-25T04:08:08;3.40;99.90
42365;DHT22;28498;54.400;18.566;2024-03-25T04:10:35;3.40;99.90
42365;DHT22;28498;54.400;18.566;2024-03-25T04:13:03;3.50;99.90
42365;DHT22;28498;54.400;18.566;2024-03-25T04:15:29;3.50;99.90
42365;DHT22;28498;54.400;18.566;2024-03-25T04:17:55;3.50;99.90
42365;DHT22;28498;54.400;18.566;2024-03-25T04:20:21;3.50;99.90
42365;DHT22;28498;54.400;18.566;2024-03-25T04:22:47;3.60;99.90
42365;DHT22;28498;54.400;18.566;2024-03-25T04:25:13;3.60;99.90
42365;DHT22;28498;54.400;18.566;2024-03-25T04:27:43;3.60;99.90
42365;DHT22;28498;54.400;18.566;2024-03-25T04:30:10;3.60;99.90
42365;DHT22;28498;54.400;18.566;2024-03-25T04:32:40;3.60;99.90
42365;DHT22;28498;54.400;18.566;2024-03-25T04:35:07;3.70;99.90
42365;DHT22;28498;54.400;18.566;2024-03-25T04:37:34;3.60;99.90
42365;DHT22;28498;54.400;18.566;2024-03-25T04:40:01;3.70;99.90
42365;DHT22;28498;54.400;18.566;2024-03-25T04:42:27;3.60;99.90
42365;DHT22;28498;54.400;18.566;2024-03-25T04:44:53;3.60;99.90
42365;DHT22;28498;54.400;18.566;2024-03-25T04:47:20;3.60;99.90
42365;DHT22;28498;54.400;18.566;2024-03-25T04:49:45;3.70;99.90
42365;DHT22;28498;54.400;18.566;2024-03-25T04:52:12;3.70;99.90
42365;DHT22;28498;54.400;18.566;2024-03-25T04:54:43;3.70;99.90
42365;DHT22;28498;54.400;18.566;2024-03-25T04:57:09;3.60;99.90
42365;DHT22;28498;54.400;18.566;2024-03-25T04:59:35;3.70;99.90
42365;DHT22;28498;54.400;18.566;2024-03-25T05:02:01;3.70;99.90
42365;DHT22;28498;54.400;18.566;2024-03-25T05:04:28;3.80;99.90
42365;DHT22;28498;54.400;18.566;2024-03-25T05:06:54;3.90;99.90
42365;DHT22;28498;54.400;18.566;2024-03-25T05:09:20;3.90;99.90
42365;DHT22;28498;54.400;18.566;2024-03-25T05:11:46;3.90;99.90
42365;DHT22;28498;54.400;18.566;2024-03-25T05:14:12;4.00;99.90
42365;DHT22;28498;54.400;18.566;2024-03-25T05:16:38;4.00;99.90
42365;DHT22;28498;54.400;18.566;2024-03-25T05:19:04;4.00;99.90
42365;DHT22;28498;54.400;18.566;2024-03-25T05:21:33;4.10;99.90
42365;DHT22;28498;54.400;18.566;2024-03-25T05:23:59;4.10;99.90
42365;DHT22;28498;54.400;18.566;2024-03-25T05:26:25;4.10;99.90
42365;DHT22;28498;54.400;18.566;2024-03-25T05:28:55;4.20;99.90
42365;DHT22;28498;54.400;18.566;2024-03-25T05:31:21;4.30;99.90
42365;DHT22;28498;54.400;18.566;2024-03-25T05:33:47;4.30;99.90
42365;DHT22;28498;54.400;18.566;2024-03-25T05:36:14;4.30;99.90
42365;DHT22;28498;54.400;18.566;2024-03-25T05:38:40;4.40;99.90
42365;DHT22;28498;54.400;18.566;2024-03-25T05:41:07;4.40;99.90
42365;DHT22;28498;54.400;18.566;2024-03-25T05:43:33;4.40;99.90
42365;DHT22;28498;54.400;18.566;2024-03-25T05:45:59;4.40;99.90
42365;DHT22;28498;54.400;18.566;2024-03-25T05:48:25;4.50;99.90
42365;DHT22;28498;54.400;18.566;2024-03-25T05:53:31;4.50;99.90
42365;DHT22;28498;54.400;18.566;2024-03-25T05:55:57;4.50;99.90
42365;DHT22;28498;54.400;18.566;2024-03-25T05:58:25;4.50;99.90
42365;DHT22;28498;54.400;18.566;2024-03-25T06:00:51;4.50;99.90
42365;DHT22;28498;54.400;18.566;2024-03-25T06:03:19;4.50;99.90
42365;DHT22;28498;54.400;18.566;2024-03-25T06:05:45;4.60;99.90
42365;DHT22;28498;54.400;18.566;2024-03-25T06:08:11;4.60;99.90
42365;DHT22;28498;54.400;18.566;2024-03-25T06:10:53;4.70;99.90
42365;DHT22;28498;54.400;18.566;2024-03-25T06:13:19;4.70;99.90
42365;DHT22;28498;54.400;18.566;2024-03-25T06:15:45;4.80;99.90
42365;DHT22;28498;54.400;18.566;2024-03-25T06:18:11;4.80;99.90
42365;DHT22;28498;54.400;18.566;2024-03-25T06:20:37;5.00;99.90
42365;DHT22;28498;54.400;18.566;2024-03-25T06:23:04;5.00;99.90
42365;DHT22;28498;54.400;18.566;2024-03-25T06:25:30;5.20;99.90
42365;DHT22;28498;54.400;18.566;2024-03-25T06:27:56;5.30;99.90
42365;DHT22;28498;54.400;18.566;2024-03-25T06:30:23;5.40;99.90
42365;DHT22;28498;54.400;18.566;2024-03-25T06:33:07;5.70;99.90
42365;DHT22;28498;54.400;18.566;2024-03-25T06:35:52;5.80;99.90
42365;DHT22;28498;54.400;18.566;2024-03-25T06:38:18;6.00;99.90
42365;DHT22;28498;54.400;18.566;2024-03-25T06:40:45;6.10;99.90
42365;DHT22;28498;54.400;18.566;2024-03-25T06:43:12;6.10;99.90
42365;DHT22;28498;54.400;18.566;2024-03-25T06:45:38;6.30;99.90
42365;DHT22;28498;54.400;18.566;2024-03-25T06:48:04;6.40;99.90
42365;DHT22;28498;54.400;18.566;2024-03-25T06:50:30;6.40;99.90
42365;DHT22;28498;54.400;18.566;2024-03-25T06:52:56;6.60;99.90
42365;DHT22;28498;54.400;18.566;2024-03-25T06:55:22;6.90;99.90
42365;DHT22;28498;54.400;18.566;2024-03-25T06:57:53;7.00;99.90
42365;DHT22;28498;54.400;18.566;2024-03-25T07:00:19;7.10;99.90
42365;DHT22;28498;54.400;18.566;2024-03-25T07:02:51;7.20;99.90
42365;DHT22;28498;54.400;18.566;2024-03-25T07:05:17;7.40;99.90
42365;DHT22;28498;54.400;18.566;2024-03-25T07:07:43;7.40;99.90
42365;DHT22;28498;54.400;18.566;2024-03-25T07:10:09;7.50;99.90
42365;DHT22;28498;54.400;18.566;2024-03-25T07:12:34;7.50;99.90
42365;DHT22;28498;54.400;18.566;2024-03-25T07:15:01;7.50;99.90
42365;DHT22;28498;54.400;18.566;2024-03-25T07:17:27;7.60;99.90
42365;DHT22;28498;54.400;18.566;2024-03-25T07:19:53;7.60;99.90
42365;DHT22;28498;54.400;18.566;2024-03-25T07:22:19;7.60;99.90
42365;DHT22;28498;54.400;18.566;2024-03-25T07:24:45;7.60;99.90
42365;DHT22;28498;54.400;18.566;2024-03-25T07:27:11;7.70;99.90
42365;DHT22;28498;54.400;18.566;2024-03-25T07:29:38;7.80;99.90
42365;DHT22;28498;54.400;18.566;2024-03-25T07:32:04;7.80;99.90
42365;DHT22;28498;54.400;18.566;2024-03-25T07:34:30;7.80;99.90
42365;DHT22;28498;54.400;18.566;2024-03-25T07:36:56;8.00;99.90
42365;DHT22;28498;54.400;18.566;2024-03-25T07:39:22;7.90;99.90
42365;DHT22;28498;54.400;18.566;2024-03-25T07:41:50;8.10;99.90
42365;DHT22;28498;54.400;18.566;2024-03-25T07:44:16;8.20;99.90
42365;DHT22;28498;54.400;18.566;2024-03-25T07:50:29;8.40;99.90
42365;DHT22;28498;54.400;18.566;2024-03-25T07:52:55;8.30;99.90
42365;DHT22;28498;54.400;18.566;2024-03-25T07:55:21;8.40;99.90
42365;DHT22;28498;54.400;18.566;2024-03-25T07:57:47;8.40;99.90
42365;DHT22;28498;54.400;18.566;2024-03-25T08:00:14;8.30;99.90
42365;DHT22;28498;54.400;18.566;2024-03-25T08:02:40;8.40;99.90
42365;DHT22;28498;54.400;18.566;2024-03-25T08:05:06;8.60;99.90
42365;DHT22;28498;54.400;18.566;2024-03-25T08:07:32;8.70;99.90
42365;DHT22;28498;54.400;18.566;2024-03-25T08:09:59;8.80;99.90
42365;DHT22;28498;54.400;18.566;2024-03-25T08:12:25;8.80;99.90
42365;DHT22;28498;54.400;18.566;2024-03-25T08:14:51;8.90;99.90
42365;DHT22;28498;54.400;18.566;2024-03-25T08:17:17;8.80;99.90
42365;DHT22;28498;54.400;18.566;2024-03-25T08:19:43;8.80;99.90
42365;DHT22;28498;54.400;18.566;2024-03-25T08:22:09;8.70;99.90
42365;DHT22;28498;54.400;18.566;2024-03-25T08:24:34;8.80;99.90
42365;DHT22;28498;54.400;18.566;2024-03-25T08:27:00;9.00;99.90
42365;DHT22;28498;54.400;18.566;2024-03-25T08:29:26;9.10;99.90
42365;DHT22;28498;54.400;18.566;2024-03-25T08:31:52;8.60;99.90
42365;DHT22;28498;54.400;18.566;2024-03-25T08:34:18;8.70;99.90
42365;DHT22;28498;54.400;18.566;2024-03-25T08:36:45;9.10;99.90
42365;DHT22;28498;54.400;18.566;2024-03-25T08:39:10;9.30;99.90
42365;DHT22;28498;54.400;18.566;2024-03-25T08:41:36;9.40;99.90
42365;DHT22;28498;54.400;18.566;2024-03-25T08:47:44;9.20;99.90
42365;DHT22;28498;54.400;18.566;2024-03-25T08:50:10;9.10;99.90
42365;DHT22;28498;54.400;18.566;2024-03-25T08:52:35;9.30;99.90
42365;DHT22;28498;54.400;18.566;2024-03-25T08:55:02;9.20;99.90
42365;DHT22;28498;54.400;18.566;2024-03-25T08:57:28;9.40;99.90
42365;DHT22;28498;54.400;18.566;2024-03-25T08:59:53;9.70;99.90
42365;DHT22;28498;54.400;18.566;2024-03-25T09:02:19;9.80;99.90
42365;DHT22;28498;54.400;18.566;2024-03-25T09:04:45;9.90;99.90
42365;DHT22;28498;54.400;18.566;2024-03-25T09:07:14;9.70;99.90
42365;DHT22;28498;54.400;18.566;2024-03-25T09:09:40;9.80;99.90
42365;DHT22;28498;54.400;18.566;2024-03-25T09:12:24;9.80;99.90
42365;DHT22;28498;54.400;18.566;2024-03-25T09:14:50;9.80;99.90
42365;DHT22;28498;54.400;18.566;2024-03-25T09:21:04;10.00;99.90
42365;DHT22;28498;54.400;18.566;2024-03-25T09:23:31;10.30;99.90
42365;DHT22;28498;54.400;18.566;2024-03-25T09:25:57;10.00;99.90
42365;DHT22;28498;54.400;18.566;2024-03-25T09:28:23;9.90;99.90
42365;DHT22;28498;54.400;18.566;2024-03-25T09:30:49;9.80;99.90
42365;DHT22;28498;54.400;18.566;2024-03-25T09:33:15;9.70;99.90
42365;DHT22;28498;54.400;18.566;2024-03-25T09:35:41;9.90;99.90
42365;DHT22;28498;54.400;18.566;2024-03-25T09:38:10;9.50;99.90
42365;DHT22;28498;54.400;18.566;2024-03-25T09:40:40;10.00;99.90
42365;DHT22;28498;54.400;18.566;2024-03-25T09:43:20;10.10;99.90
42365;DHT22;28498;54.400;18.566;2024-03-25T09:45:49;10.10;99.90
42365;DHT22;28498;54.400;18.566;2024-03-25T09:48:19;10.30;99.90
42365;DHT22;28498;54.400;18.566;2024-03-25T09:50:47;10.50;99.90
42365;DHT22;28498;54.400;18.566;2024-03-25T09:53:14;10.40;99.90
42365;DHT22;28498;54.400;18.566;2024-03-25T09:55:41;10.50;99.90
42365;DHT22;28498;54.400;18.566;2024-03-25T09:58:07;10.60;99.90
42365;DHT22;28498;54.400;18.566;2024-03-25T10:00:35;10.50;99.90
42365;DHT22;28498;54.400;18.566;2024-03-25T10:03:01;10.40;99.90
42365;DHT22;28498;54.400;18.566;2024-03-25T10:05:28;9.90;99.90
42365;DHT22;28498;54.400;18.566;2024-03-25T10:07:54;9.60;99.90
42365;DHT22;28498;54.400;18.566;2024-03-25T10:14:07;9.60;99.90
42365;DHT22;28498;54.400;18.566;2024-03-25T10:16:34;9.70;99.90
42365;DHT22;28498;54.400;18.566;2024-03-25T10:19:00;9.60;99.90
42365;DHT22;28498;54.400;18.566;2024-03-25T10:21:26;9.70;99.90
42365;DHT22;28498;54.400;18.566;2024-03-25T10:23:52;9.80;99.90
42365;DHT22;28498;54.400;18.566;2024-03-25T10:26:30;9.50;99.90
42365;DHT22;28498;54.400;18.566;2024-03-25T10:29:02;9.70;99.90
42365;DHT22;28498;54.400;18.566;2024-03-25T10:31:29;9.60;99.90
42365;DHT22;28498;54.400;18.566;2024-03-25T10:33:55;9.40;99.90
42365;DHT22;28498;54.400;18.566;2024-03-25T10:36:22;9.30;99.90
42365;DHT22;28498;54.400;18.566;2024-03-25T10:38:54;9.40;99.90
42365;DHT22;28498;54.400;18.566;2024-03-25T10:41:21;9.10;99.90
42365;DHT22;28498;54.400;18.566;2024-03-25T10:43:48;9.20;99.90
42365;DHT22;28498;54.400;18.566;2024-03-25T10:46:19;9.00;99.90
42365;DHT22;28498;54.400;18.566;2024-03-25T10:49:15;8.90;99.90
42365;DHT22;28498;54.400;18.566;2024-03-25T10:51:44;8.70;99.90
42365;DHT22;28498;54.400;18.566;2024-03-25T10:54:12;8.60;99.90
42365;DHT22;28498;54.400;18.566;2024-03-25T10:56:39;8.70;99.90
42365;DHT22;28498;54.400;18.566;2024-03-25T10:59:06;8.60;99.90
42365;DHT22;28498;54.400;18.566;2024-03-25T11:01:35;8.50;99.90
42365;DHT22;28498;54.400;18.566;2024-03-25T11:04:01;8.60;99.90
42365;DHT22;28498;54.400;18.566;2024-03-25T11:06:31;8.50;99.90
42365;DHT22;28498;54.400;18.566;2024-03-25T11:08:58;8.40;99.90
42365;DHT22;28498;54.400;18.566;2024-03-25T11:15:11;8.30;99.90
42365;DHT22;28498;54.400;18.566;2024-03-25T11:17:48;8.30;99.90
42365;DHT22;28498;54.400;18.566;2024-03-25T11:20:17;8.10;99.90
42365;DHT22;28498;54.400;18.566;2024-03-25T11:22:53;8.10;99.90
42365;DHT22;28498;54.400;18.566;2024-03-25T11:25:22;8.20;99.90
42365;DHT22;28498;54.400;18.566;2024-03-25T11:27:48;8.10;99.90
42365;DHT22;28498;54.400;18.566;2024-03-25T11:30:15;8.10;99.90
42365;DHT22;28498;54.400;18.566;2024-03-25T11:32:54;8.10;99.90
42365;DHT22;28498;54.400;18.566;2024-03-25T11:35:20;8.00;99.90
42365;DHT22;28498;54.400;18.566;2024-03-25T11:37:47;7.80;99.90
42365;DHT22;28498;54.400;18.566;2024-03-25T11:40:14;7.30;99.90
42365;DHT22;28498;54.400;18.566;2024-03-25T11:42:42;6.80;99.90
42365;DHT22;28498;54.400;18.566;2024-03-25T11:47:45;6.50;99.90
42365;DHT22;28498;54.400;18.566;2024-03-25T11:50:13;6.60;99.90
42365;DHT22;28498;54.400;18.566;2024-03-25T11:52:39;6.70;99.90
42365;DHT22;28498;54.400;18.566;2024-03-25T11:55:06;6.80;99.90
42365;DHT22;28498;54.400;18.566;2024-03-25T12:01:21;7.20;99.90
42365;DHT22;28498;54.400;18.566;2024-03-25T12:03:47;7.10;99.90
42365;DHT22;28498;54.400;18.566;2024-03-25T12:06:13;7.20;99.90
42365;DHT22;28498;54.400;18.566;2024-03-25T12:08:39;7.10;99.90
42365;DHT22;28498;54.400;18.566;2024-03-25T12:11:25;7.40;99.90
42365;DHT22;28498;54.400;18.566;2024-03-25T12:13:51;7.50;99.90
42365;DHT22;28498;54.400;18.566;2024-03-25T12:16:17;7.60;99.90
42365;DHT22;28498;54.400;18.566;2024-03-25T12:18:43;7.80;99.90
42365;DHT22;28498;54.400;18.566;2024-03-25T12:21:10;7.90;99.90
42365;DHT22;28498;54.400;18.566;2024-03-25T12:23:36;7.90;99.90
42365;DHT22;28498;54.400;18.566;2024-03-25T12:26:04;8.00;99.90
42365;DHT22;28498;54.400;18.566;2024-03-25T12:28:33;7.90;99.90
42365;DHT22;28498;54.400;18.566;2024-03-25T12:31:00;7.70;99.90
42365;DHT22;28498;54.400;18.566;2024-03-25T12:33:27;7.70;99.90
42365;DHT22;28498;54.400;18.566;2024-03-25T12:35:53;7.60;99.90
42365;DHT22;28498;54.400;18.566;2024-03-25T12:38:27;7.40;99.90
42365;DHT22;28498;54.400;18.566;2024-03-25T12:41:00;7.20;99.90
42365;DHT22;28498;54.400;18.566;2024-03-25T12:43:31;7.10;99.90
42365;DHT22;28498;54.400;18.566;2024-03-25T12:45:58;7.20;99.90
42365;DHT22;28498;54.400;18.566;2024-03-25T12:48:25;7.20;99.90
42365;DHT22;28498;54.400;18.566;2024-03-25T12:50:51;7.20;99.90
42365;DHT22;28498;54.400;18.566;2024-03-25T12:53:18;7.00;99.90
42365;DHT22;28498;54.400;18.566;2024-03-25T12:55:45;6.90;99.90
42365;DHT22;28498;54.400;18.566;2024-03-25T12:58:12;6.90;99.90
42365;DHT22;28498;54.400;18.566;2024-03-25T13:00:38;7.10;99.90
42365;DHT22;28498;54.400;18.566;2024-03-25T13:03:08;7.30;99.90
42365;DHT22;28498;54.400;18.566;2024-03-25T13:05:35;7.40;99.90
42365;DHT22;28498;54.400;18.566;2024-03-25T13:08:01;7.30;99.90
42365;DHT22;28498;54.400;18.566;2024-03-25T13:10:28;7.20;99.90
42365;DHT22;28498;54.400;18.566;2024-03-25T13:12:55;7.20;99.90
42365;DHT22;28498;54.400;18.566;2024-03-25T13:15:21;7.30;99.90
42365;DHT22;28498;54.400;18.566;2024-03-25T13:17:48;7.20;99.90
42365;DHT22;28498;54.400;18.566;2024-03-25T13:20:14;7.10;99.90
42365;DHT22;28498;54.400;18.566;2024-03-25T13:22:40;6.90;99.90
42365;DHT22;28498;54.400;18.566;2024-03-25T13:25:07;7.00;99.90
42365;DHT22;28498;54.400;18.566;2024-03-25T13:27:33;7.20;99.90
42365;DHT22;28498;54.400;18.566;2024-03-25T13:29:59;7.00;99.90
42365;DHT22;28498;54.400;18.566;2024-03-25T13:32:25;6.90;99.90
42365;DHT22;28498;54.400;18.566;2024-03-25T13:34:51;7.00;99.90
42365;DHT22;28498;54.400;18.566;2024-03-25T13:37:17;7.00;99.90
42365;DHT22;28498;54.400;18.566;2024-03-25T13:39:44;7.10;99.90
42365;DHT22;28498;54.400;18.566;2024-03-25T13:42:11;6.90;99.90
42365;DHT22;28498;54.400;18.566;2024-03-25T13:44:37;6.90;99.90
42365;DHT22;28498;54.400;18.566;2024-03-25T13:50:54;6.80;99.90
42365;DHT22;28498;54.400;18.566;2024-03-25T13:53:20;6.80;99.90
42365;DHT22;28498;54.400;18.566;2024-03-25T13:55:46;6.60;99.90
42365;DHT22;28498;54.400;18.566;2024-03-25T13:58:13;6.40;99.90
42365;DHT22;28498;54.400;18.566;2024-03-25T14:00:39;6.20;99.90
42365;DHT22;28498;54.400;18.566;2024-03-25T14:03:05;6.10;99.90
42365;DHT22;28498;54.400;18.566;2024-03-25T14:05:31;6.10;99.90
42365;DHT22;28498;54.400;18.566;2024-03-25T14:07:57;6.10;99.90
42365;DHT22;28498;54.400;18.566;2024-03-25T14:10:23;6.10;99.90
42365;DHT22;28498;54.400;18.566;2024-03-25T14:12:49;6.20;99.90
42365;DHT22;28498;54.400;18.566;2024-03-25T14:15:15;6.30;99.90
42365;DHT22;28498;54.400;18.566;2024-03-25T14:17:41;6.30;99.90
42365;DHT22;28498;54.400;18.566;2024-03-25T14:20:08;6.30;99.90
42365;DHT22;28498;54.400;18.566;2024-03-25T14:22:34;6.10;99.90
42365;DHT22;28498;54.400;18.566;2024-03-25T14:25:00;6.10;99.90
42365;DHT22;28498;54.400;18.566;2024-03-25T14:27:26;6.00;99.90
42365;DHT22;28498;54.400;18.566;2024-03-25T14:29:52;5.90;99.90
42365;DHT22;28498;54.400;18.566;2024-03-25T14:32:19;6.10;99.90
42365;DHT22;28498;54.400;18.566;2024-03-25T14:34:46;6.10;99.90
42365;DHT22;28498;54.400;18.566;2024-03-25T14:37:12;6.20;99.90
42365;DHT22;28498;54.400;18.566;2024-03-25T14:39:39;5.80;99.90
42365;DHT22;28498;54.400;18.566;2024-03-25T14:42:07;5.80;99.90
42365;DHT22;28498;54.400;18.566;2024-03-25T14:44:33;5.80;99.90
42365;DHT22;28498;54.400;18.566;2024-03-25T14:46:59;6.00;99.90
42365;DHT22;28498;54.400;18.566;2024-03-25T14:49:25;6.00;99.90
42365;DHT22;28498;54.400;18.566;2024-03-25T14:51:52;6.10;99.90
42365;DHT22;28498;54.400;18.566;2024-03-25T14:54:18;6.10;99.90
42365;DHT22;28498;54.400;18.566;2024-03-25T14:56:45;6.00;99.90
42365;DHT22;28498;54.400;18.566;2024-03-25T14:59:11;6.00;99.90
42365;DHT22;28498;54.400;18.566;2024-03-25T15:01:37;5.80;99.90
42365;DHT22;28498;54.400;18.566;2024-03-25T15:04:04;5.80;99.90
42365;DHT22;28498;54.400;18.566;2024-03-25T15:06:30;5.70;99.90
42365;DHT22;28498;54.400;18.566;2024-03-25T15:08:57;5.60;99.90
42365;DHT22;28498;54.400;18.566;2024-03-25T15:11:23;5.60;99.90
42365;DHT22;28498;54.400;18.566;2024-03-25T15:13:51;5.70;99.90
42365;DHT22;28498;54.400;18.566;2024-03-25T15:16:18;5.70;99.90
42365;DHT22;28498;54.400;18.566;2024-03-25T15:18:44;5.80;99.90
42365;DHT22;28498;54.400;18.566;2024-03-25T15:21:10;5.80;99.90
42365;DHT22;28498;54.400;18.566;2024-03-25T15:23:36;6.00;99.90
42365;DHT22;28498;54.400;18.566;2024-03-25T15:26:03;6.10;99.90
42365;DHT22;28498;54.400;18.566;2024-03-25T15:28:29;6.10;99.90
42365;DHT22;28498;54.400;18.566;2024-03-25T15:30:55;6.20;99.90
42365;DHT22;28498;54.400;18.566;2024-03-25T15:33:22;6.20;99.90
42365;DHT22;28498;54.400;18.566;2024-03-25T15:35:51;6.20;99.90
42365;DHT22;28498;54.400;18.566;2024-03-25T15:38:17;6.20;99.90
42365;DHT22;28498;54.400;18.566;2024-03-25T15:40:44;6.30;99.90
42365;DHT22;28498;54.400;18.566;2024-03-25T15:43:17;6.30;99.90
42365;DHT22;28498;54.400;18.566;2024-03-25T15:45:57;6.40;99.90
42365;DHT22;28498;54.400;18.566;2024-03-25T15:48:23;6.60;99.90
42365;DHT22;28498;54.400;18.566;2024-03-25T15:50:49;6.90;99.90
42365;DHT22;28498;54.400;18.566;2024-03-25T15:53:15;7.10;99.90
42365;DHT22;28498;54.400;18.566;2024-03-25T15:55:42;7.50;99.90
42365;DHT22;28498;54.400;18.566;2024-03-25T15:58:11;7.80;99.90
42365;DHT22;28498;54.400;18.566;2024-03-25T16:00:37;7.90;99.90